sensor_id;sensor_type;location;lat;lon;timestamp;P1;durP1;ratioP1;P2;durP2;ratioP2
5702;SDS011;2876;51.738;10.050;2023-02-02T00:03:53;9.73;;;1.87;;
5702;SDS011;2876;51.738;10.050;2023-02-02T00:09:56;16.77;;;2.63;;
5702;SDS011;2876;51.738;10.050;2023-02-02T00:15:58;5.03;;;1.63;;
5702;SDS011;2876;51.738;10.050;2023-02-02T00:22:17;5.67;;;2.10;;
5702;SDS011;2876;51.738;10.050;2023-02-02T00:28:19;6.63;;;1.53;;
5702;SDS011;2876;51.738;10.050;2023-02-02T00:34:22;9.10;;;3.17;;
5702;SDS011;2876;51.738;10.050;2023-02-02T00:40:24;16.33;;;2.10;;
5702;SDS011;2876;51.738;10.050;2023-02-02T00:46:26;9.40;;;1.50;;
5702;SDS011;2876;51.738;10.050;2023-02-02T00:52:28;7.37;;;2.27;;
5702;SDS011;2876;51.738;10.050;2023-02-02T00:58:30;16.77;;;2.50;;
5702;SDS011;2876;51.738;10.050;2023-02-02T01:04:32;11.70;;;2.00;;
5702;SDS011;2876;51.738;10.050;2023-02-02T01:10:34;8.50;;;2.00;;
5702;SDS011;2876;51.738;10.050;2023-02-02T01:16:36;15.00;;;2.63;;
5702;SDS011;2876;51.738;10.050;2023-02-02T01:22:38;5.07;;;1.83;;
5702;SDS011;2876;51.738;10.050;2023-02-02T01:28:40;10.50;;;1.80;;
5702;SDS011;2876;51.738;10.050;2023-02-02T01:34:42;17.80;;;3.17;;
5702;SDS011;2876;51.738;10.050;2023-02-02T01:40:48;14.60;;;2.30;;
5702;SDS011;2876;51.738;10.050;2023-02-02T01:46:50;5.93;;;1.70;;
5702;SDS011;2876;51.738;10.050;2023-02-02T01:52:52;6.93;;;1.83;;
5702;SDS011;2876;51.738;10.050;2023-02-02T01:58:58;7.03;;;2.03;;
5702;SDS011;2876;51.738;10.050;2023-02-02T02:05:01;8.00;;;2.33;;
5702;SDS011;2876;51.738;10.050;2023-02-02T02:11:05;13.30;;;3.30;;
5702;SDS011;2876;51.738;10.050;2023-02-02T02:17:21;9.30;;;2.17;;
5702;SDS011;2876;51.738;10.050;2023-02-02T02:24:17;9.13;;;1.83;;
5702;SDS011;2876;51.738;10.050;2023-02-02T02:43:53;6.93;;;1.70;;
5702;SDS011;2876;51.738;10.050;2023-02-02T02:50:05;8.80;;;2.20;;
5702;SDS011;2876;51.738;10.050;2023-02-02T03:09:11;16.00;;;2.97;;
5702;SDS011;2876;51.738;10.050;2023-02-02T03:15:19;15.20;;;2.13;;
5702;SDS011;2876;51.738;10.050;2023-02-02T03:21:22;18.10;;;3.00;;
5702;SDS011;2876;51.738;10.050;2023-02-02T03:27:24;10.17;;;2.30;;
5702;SDS011;2876;51.738;10.050;2023-02-02T03:33:27;10.07;;;2.80;;
5702;SDS011;2876;51.738;10.050;2023-02-02T03:39:33;8.50;;;2.13;;
5702;SDS011;2876;51.738;10.050;2023-02-02T03:45:35;6.90;;;1.80;;
5702;SDS011;2876;51.738;10.050;2023-02-02T03:51:37;6.83;;;2.43;;
5702;SDS011;2876;51.738;10.050;2023-02-02T03:57:39;8.53;;;2.53;;
5702;SDS011;2876;51.738;10.050;2023-02-02T04:03:41;14.77;;;3.00;;
5702;SDS011;2876;51.738;10.050;2023-02-02T04:09:43;6.33;;;2.80;;
5702;SDS011;2876;51.738;10.050;2023-02-02T04:15:45;7.83;;;2.57;;
5702;SDS011;2876;51.738;10.050;2023-02-02T04:21:47;16.10;;;1.97;;
5702;SDS011;2876;51.738;10.050;2023-02-02T04:27:49;8.03;;;2.07;;
5702;SDS011;2876;51.738;10.050;2023-02-02T04:33:51;7.83;;;2.00;;
5702;SDS011;2876;51.738;10.050;2023-02-02T04:39:53;9.23;;;1.60;;
5702;SDS011;2876;51.738;10.050;2023-02-02T04:45:55;4.13;;;1.80;;
5702;SDS011;2876;51.738;10.050;2023-02-02T04:51:57;7.87;;;3.13;;
5702;SDS011;2876;51.738;10.050;2023-02-02T04:57:59;9.33;;;2.47;;
5702;SDS011;2876;51.738;10.050;2023-02-02T05:04:01;12.07;;;1.67;;
5702;SDS011;2876;51.738;10.050;2023-02-02T05:10:03;6.73;;;2.00;;
5702;SDS011;2876;51.738;10.050;2023-02-02T05:16:07;8.87;;;2.63;;
5702;SDS011;2876;51.738;10.050;2023-02-02T05:22:09;14.90;;;1.80;;
5702;SDS011;2876;51.738;10.050;2023-02-02T05:28:11;4.90;;;1.63;;
5702;SDS011;2876;51.738;10.050;2023-02-02T05:34:13;14.47;;;2.73;;
5702;SDS011;2876;51.738;10.050;2023-02-02T05:40:15;11.37;;;2.10;;
5702;SDS011;2876;51.738;10.050;2023-02-02T05:46:17;6.67;;;2.00;;
5702;SDS011;2876;51.738;10.050;2023-02-02T05:52:20;4.20;;;1.60;;
5702;SDS011;2876;51.738;10.050;2023-02-02T05:58:25;8.33;;;1.50;;
5702;SDS011;2876;51.738;10.050;2023-02-02T06:04:28;19.40;;;2.67;;
5702;SDS011;2876;51.738;10.050;2023-02-02T06:10:30;12.57;;;2.17;;
5702;SDS011;2876;51.738;10.050;2023-02-02T06:16:32;5.80;;;2.00;;
5702;SDS011;2876;51.738;10.050;2023-02-02T06:22:34;6.40;;;2.10;;
5702;SDS011;2876;51.738;10.050;2023-02-02T06:28:35;9.70;;;2.97;;
5702;SDS011;2876;51.738;10.050;2023-02-02T06:34:37;16.27;;;3.23;;
5702;SDS011;2876;51.738;10.050;2023-02-02T06:40:39;5.50;;;2.10;;
5702;SDS011;2876;51.738;10.050;2023-02-02T06:46:41;5.33;;;1.63;;
5702;SDS011;2876;51.738;10.050;2023-02-02T06:52:47;13.70;;;2.37;;
5702;SDS011;2876;51.738;10.050;2023-02-02T06:58:53;16.37;;;2.17;;
5702;SDS011;2876;51.738;10.050;2023-02-02T07:04:55;14.27;;;3.10;;
5702;SDS011;2876;51.738;10.050;2023-02-02T07:10:58;12.13;;;2.23;;
5702;SDS011;2876;51.738;10.050;2023-02-02T07:17:15;14.80;;;2.23;;
5702;SDS011;2876;51.738;10.050;2023-02-02T07:23:17;16.07;;;1.70;;
5702;SDS011;2876;51.738;10.050;2023-02-02T07:29:19;20.63;;;2.73;;
5702;SDS011;2876;51.738;10.050;2023-02-02T07:35:21;11.93;;;2.10;;
5702;SDS011;2876;51.738;10.050;2023-02-02T07:41:24;6.13;;;1.20;;
5702;SDS011;2876;51.738;10.050;2023-02-02T07:47:26;9.40;;;1.93;;
5702;SDS011;2876;51.738;10.050;2023-02-02T07:53:28;9.23;;;2.93;;
5702;SDS011;2876;51.738;10.050;2023-02-02T07:59:30;1.50;;;1.00;;
5702;SDS011;2876;51.738;10.050;2023-02-02T08:05:32;3.53;;;2.03;;
5702;SDS011;2876;51.738;10.050;2023-02-02T08:11:35;4.70;;;1.27;;
5702;SDS011;2876;51.738;10.050;2023-02-02T08:17:38;2.83;;;1.37;;
5702;SDS011;2876;51.738;10.050;2023-02-02T08:23:44;5.20;;;1.83;;
5702;SDS011;2876;51.738;10.050;2023-02-02T08:29:46;2.17;;;1.30;;
5702;SDS011;2876;51.738;10.050;2023-02-02T08:35:48;2.10;;;1.13;;
5702;SDS011;2876;51.738;10.050;2023-02-02T08:41:53;2.03;;;1.10;;
5702;SDS011;2876;51.738;10.050;2023-02-02T08:47:56;6.40;;;1.43;;
5702;SDS011;2876;51.738;10.050;2023-02-02T08:54:12;3.07;;;1.40;;
5702;SDS011;2876;51.738;10.050;2023-02-02T09:00:14;6.80;;;1.77;;
5702;SDS011;2876;51.738;10.050;2023-02-02T09:06:17;13.03;;;1.80;;
5702;SDS011;2876;51.738;10.050;2023-02-02T09:12:20;6.40;;;1.67;;
5702;SDS011;2876;51.738;10.050;2023-02-02T09:18:22;6.00;;;1.33;;
5702;SDS011;2876;51.738;10.050;2023-02-02T09:24:24;6.43;;;2.00;;
5702;SDS011;2876;51.738;10.050;2023-02-02T09:30:26;4.57;;;1.50;;
5702;SDS011;2876;51.738;10.050;2023-02-02T09:36:28;5.87;;;1.40;;
5702;SDS011;2876;51.738;10.050;2023-02-02T09:42:34;10.60;;;1.70;;
5702;SDS011;2876;51.738;10.050;2023-02-02T09:48:59;6.80;;;1.80;;
5702;SDS011;2876;51.738;10.050;2023-02-02T09:55:13;9.50;;;2.43;;
5702;SDS011;2876;51.738;10.050;2023-02-02T10:01:36;7.10;;;2.10;;
5702;SDS011;2876;51.738;10.050;2023-02-02T10:07:44;5.80;;;1.50;;
5702;SDS011;2876;51.738;10.050;2023-02-02T10:13:51;7.30;;;1.80;;
5702;SDS011;2876;51.738;10.050;2023-02-02T10:20:01;5.20;;;2.00;;
5702;SDS011;2876;51.738;10.050;2023-02-02T10:26:37;11.03;;;2.20;;
5702;SDS011;2876;51.738;10.050;2023-02-02T10:39:10;7.00;;;1.77;;
5702;SDS011;2876;51.738;10.050;2023-02-02T10:45:23;3.40;;;1.60;;
5702;SDS011;2876;51.738;10.050;2023-02-02T10:51:26;4.00;;;1.30;;
5702;SDS011;2876;51.738;10.050;2023-02-02T10:57:31;3.63;;;1.27;;
5702;SDS011;2876;51.738;10.050;2023-02-02T11:04:29;6.00;;;1.53;;
5702;SDS011;2876;51.738;10.050;2023-02-02T11:10:51;7.50;;;1.40;;
5702;SDS011;2876;51.738;10.050;2023-02-02T11:17:04;3.40;;;1.07;;
5702;SDS011;2876;51.738;10.050;2023-02-02T11:23:17;8.17;;;1.27;;
5702;SDS011;2876;51.738;10.050;2023-02-02T11:35:40;3.23;;;1.40;;
5702;SDS011;2876;51.738;10.050;2023-02-02T11:42:00;3.10;;;2.00;;
5702;SDS011;2876;51.738;10.050;2023-02-02T11:48:14;2.63;;;1.53;;
5702;SDS011;2876;51.738;10.050;2023-02-02T11:54:25;2.30;;;1.30;;
5702;SDS011;2876;51.738;10.050;2023-02-02T12:00:31;2.53;;;1.00;;
5702;SDS011;2876;51.738;10.050;2023-02-02T12:06:34;1.23;;;1.00;;
5702;SDS011;2876;51.738;10.050;2023-02-02T12:13:00;1.60;;;1.27;;
5702;SDS011;2876;51.738;10.050;2023-02-02T12:38:58;1.47;;;1.23;;
5702;SDS011;2876;51.738;10.050;2023-02-02T12:46:01;1.00;;;0.90;;
5702;SDS011;2876;51.738;10.050;2023-02-02T13:12:15;1.73;;;1.17;;
5702;SDS011;2876;51.738;10.050;2023-02-02T13:18:25;1.40;;;1.20;;
5702;SDS011;2876;51.738;10.050;2023-02-02T13:24:32;2.70;;;1.33;;
5702;SDS011;2876;51.738;10.050;2023-02-02T13:30:38;3.80;;;0.97;;
5702;SDS011;2876;51.738;10.050;2023-02-02T13:36:42;3.67;;;1.03;;
5702;SDS011;2876;51.738;10.050;2023-02-02T13:42:53;2.03;;;1.30;;
5702;SDS011;2876;51.738;10.050;2023-02-02T13:49:19;1.20;;;1.10;;
5702;SDS011;2876;51.738;10.050;2023-02-02T13:55:51;1.00;;;0.93;;
5702;SDS011;2876;51.738;10.050;2023-02-02T14:01:53;1.10;;;1.00;;
5702;SDS011;2876;51.738;10.050;2023-02-02T14:07:59;3.03;;;1.00;;
5702;SDS011;2876;51.738;10.050;2023-02-02T14:14:17;2.73;;;1.40;;
5702;SDS011;2876;51.738;10.050;2023-02-02T14:20:45;3.77;;;1.63;;
5702;SDS011;2876;51.738;10.050;2023-02-02T14:26:53;3.10;;;1.70;;
5702;SDS011;2876;51.738;10.050;2023-02-02T14:33:43;4.17;;;1.37;;
5702;SDS011;2876;51.738;10.050;2023-02-02T14:40:02;2.80;;;1.40;;
5702;SDS011;2876;51.738;10.050;2023-02-02T14:52:19;1.80;;;1.33;;
5702;SDS011;2876;51.738;10.050;2023-02-02T15:18:11;1.37;;;1.27;;
5702;SDS011;2876;51.738;10.050;2023-02-02T15:24:18;3.83;;;1.23;;
5702;SDS011;2876;51.738;10.050;2023-02-02T15:30:27;1.63;;;1.40;;
5702;SDS011;2876;51.738;10.050;2023-02-02T15:36:36;2.10;;;1.40;;
5702;SDS011;2876;51.738;10.050;2023-02-02T15:42:44;3.20;;;1.50;;
5702;SDS011;2876;51.738;10.050;2023-02-02T15:49:14;1.70;;;1.60;;
5702;SDS011;2876;51.738;10.050;2023-02-02T15:55:36;4.77;;;2.20;;
5702;SDS011;2876;51.738;10.050;2023-02-02T16:01:43;3.07;;;2.07;;
5702;SDS011;2876;51.738;10.050;2023-02-02T16:07:53;3.63;;;2.73;;
5702;SDS011;2876;51.738;10.050;2023-02-02T16:14:07;4.73;;;1.90;;
5702;SDS011;2876;51.738;10.050;2023-02-02T16:20:17;4.17;;;2.40;;
5702;SDS011;2876;51.738;10.050;2023-02-02T16:26:21;4.43;;;2.30;;
5702;SDS011;2876;51.738;10.050;2023-02-02T16:32:30;3.47;;;1.90;;
5702;SDS011;2876;51.738;10.050;2023-02-02T16:38:34;5.30;;;2.90;;
5702;SDS011;2876;51.738;10.050;2023-02-02T16:44:38;5.70;;;2.10;;
5702;SDS011;2876;51.738;10.050;2023-02-02T16:50:45;2.53;;;1.87;;
5702;SDS011;2876;51.738;10.050;2023-02-02T16:57:02;2.90;;;2.60;;
5702;SDS011;2876;51.738;10.050;2023-02-02T17:03:08;4.97;;;2.70;;
5702;SDS011;2876;51.738;10.050;2023-02-02T17:09:24;5.47;;;2.43;;
5702;SDS011;2876;51.738;10.050;2023-02-02T17:15:35;2.47;;;2.00;;
5702;SDS011;2876;51.738;10.050;2023-02-02T17:21:37;6.37;;;2.33;;
5702;SDS011;2876;51.738;10.050;2023-02-02T17:27:39;2.93;;;1.67;;
5702;SDS011;2876;51.738;10.050;2023-02-02T17:33:41;2.70;;;2.33;;
5702;SDS011;2876;51.738;10.050;2023-02-02T17:39:43;3.93;;;2.57;;
5702;SDS011;2876;51.738;10.050;2023-02-02T17:45:45;4.23;;;1.90;;
5702;SDS011;2876;51.738;10.050;2023-02-02T17:51:48;2.00;;;1.90;;
5702;SDS011;2876;51.738;10.050;2023-02-02T17:57:51;2.73;;;2.30;;
5702;SDS011;2876;51.738;10.050;2023-02-02T18:03:54;4.30;;;2.17;;
5702;SDS011;2876;51.738;10.050;2023-02-02T18:09:56;3.23;;;2.20;;
5702;SDS011;2876;51.738;10.050;2023-02-02T18:15:58;2.93;;;2.63;;
5702;SDS011;2876;51.738;10.050;2023-02-02T18:22:00;2.37;;;2.13;;
5702;SDS011;2876;51.738;10.050;2023-02-02T18:28:02;10.83;;;2.60;;
5702;SDS011;2876;51.738;10.050;2023-02-02T18:34:04;4.47;;;1.70;;
5702;SDS011;2876;51.738;10.050;2023-02-02T18:40:06;3.50;;;1.73;;
5702;SDS011;2876;51.738;10.050;2023-02-02T18:46:10;3.90;;;2.17;;
5702;SDS011;2876;51.738;10.050;2023-02-02T18:52:14;1.90;;;1.60;;
5702;SDS011;2876;51.738;10.050;2023-02-02T18:58:15;3.50;;;1.73;;
5702;SDS011;2876;51.738;10.050;2023-02-02T19:04:17;2.60;;;1.60;;
5702;SDS011;2876;51.738;10.050;2023-02-02T19:10:20;3.37;;;1.63;;
5702;SDS011;2876;51.738;10.050;2023-02-02T19:16:30;5.23;;;2.13;;
5702;SDS011;2876;51.738;10.050;2023-02-02T19:22:34;2.90;;;1.80;;
5702;SDS011;2876;51.738;10.050;2023-02-02T19:28:36;4.30;;;1.80;;
5702;SDS011;2876;51.738;10.050;2023-02-02T19:34:39;5.17;;;1.93;;
5702;SDS011;2876;51.738;10.050;2023-02-02T19:40:42;1.43;;;1.33;;
5702;SDS011;2876;51.738;10.050;2023-02-02T19:46:49;4.80;;;1.60;;
5702;SDS011;2876;51.738;10.050;2023-02-02T19:52:53;4.23;;;2.07;;
5702;SDS011;2876;51.738;10.050;2023-02-02T19:58:55;2.07;;;1.77;;
5702;SDS011;2876;51.738;10.050;2023-02-02T20:05:01;3.00;;;2.33;;
5702;SDS011;2876;51.738;10.050;2023-02-02T20:17:35;4.70;;;2.20;;
5702;SDS011;2876;51.738;10.050;2023-02-02T20:23:42;2.50;;;2.07;;
5702;SDS011;2876;51.738;10.050;2023-02-02T20:29:46;2.03;;;1.83;;
5702;SDS011;2876;51.738;10.050;2023-02-02T20:35:50;2.10;;;1.90;;
5702;SDS011;2876;51.738;10.050;2023-02-02T20:41:53;2.83;;;2.30;;
5702;SDS011;2876;51.738;10.050;2023-02-02T20:47:57;4.40;;;2.50;;
5702;SDS011;2876;51.738;10.050;2023-02-02T20:53:59;14.53;;;7.17;;
5702;SDS011;2876;51.738;10.050;2023-02-02T21:00:01;6.47;;;4.30;;
5702;SDS011;2876;51.738;10.050;2023-02-02T21:06:03;3.10;;;2.60;;
5702;SDS011;2876;51.738;10.050;2023-02-02T21:12:05;3.20;;;2.90;;
5702;SDS011;2876;51.738;10.050;2023-02-02T21:18:07;3.37;;;3.07;;
5702;SDS011;2876;51.738;10.050;2023-02-02T21:24:09;3.27;;;2.97;;
5702;SDS011;2876;51.738;10.050;2023-02-02T21:30:11;3.73;;;3.07;;
5702;SDS011;2876;51.738;10.050;2023-02-02T21:42:38;4.00;;;3.33;;
5702;SDS011;2876;51.738;10.050;2023-02-02T21:48:48;5.43;;;2.70;;
5702;SDS011;2876;51.738;10.050;2023-02-02T21:54:50;4.03;;;3.03;;
5702;SDS011;2876;51.738;10.050;2023-02-02T22:00:53;4.10;;;3.70;;
5702;SDS011;2876;51.738;10.050;2023-02-02T22:07:00;4.40;;;3.30;;
5702;SDS011;2876;51.738;10.050;2023-02-02T22:25:33;4.07;;;3.60;;
5702;SDS011;2876;51.738;10.050;2023-02-02T22:31:37;4.33;;;3.13;;
5702;SDS011;2876;51.738;10.050;2023-02-02T22:37:39;4.13;;;3.73;;
5702;SDS011;2876;51.738;10.050;2023-02-02T22:43:41;5.67;;;3.50;;
5702;SDS011;2876;51.738;10.050;2023-02-02T22:49:43;4.00;;;3.70;;
5702;SDS011;2876;51.738;10.050;2023-02-02T22:55:45;4.47;;;3.70;;
5702;SDS011;2876;51.738;10.050;2023-02-02T23:01:47;6.33;;;3.80;;
5702;SDS011;2876;51.738;10.050;2023-02-02T23:07:49;4.00;;;3.70;;
5702;SDS011;2876;51.738;10.050;2023-02-02T23:13:52;5.60;;;4.30;;
5702;SDS011;2876;51.738;10.050;2023-02-02T23:19:54;4.57;;;4.17;;
5702;SDS011;2876;51.738;10.050;2023-02-02T23:25:55;5.87;;;4.80;;
5702;SDS011;2876;51.738;10.050;2023-02-02T23:31:57;4.30;;;3.90;;
5702;SDS011;2876;51.738;10.050;2023-02-02T23:37:59;5.30;;;4.20;;
5702;SDS011;2876;51.738;10.050;2023-02-02T23:44:01;5.07;;;3.77;;
5702;SDS011;2876;51.738;10.050;2023-02-02T23:50:04;5.30;;;4.70;;
5702;SDS011;2876;51.738;10.050;2023-02-02T23:56:09;8.33;;;5.00;;
